Aviation Digital Data Service (ADDS)

Output produced by TAFs form (0745 UTC 25 October 2014)
found at http://aviationweather.gov/adds/tafs/
 
KABQ 250532Z 2506/2606 VRB05KT P6SM SKC